sensor_id;sensor_type;location;lat;lon;timestamp;pressure;altitude;pressure_sealevel;temperature;humidity
49102;BME280;34913;47.520;19.186;2022-10-14T00:00:34;100339.69;;;8.33;100.00
49102;BME280;34913;47.520;19.186;2022-10-14T00:03:00;100335.47;;;8.30;100.00
49102;BME280;34913;47.520;19.186;2022-10-14T00:05:25;100340.09;;;8.27;100.00
49102;BME280;34913;47.520;19.186;2022-10-14T00:07:50;100334.06;;;8.25;100.00
49102;BME280;34913;47.520;19.186;2022-10-14T00:10:16;100342.00;;;8.25;100.00
49102;BME280;34913;47.520;19.186;2022-10-14T00:12:41;100331.41;;;8.25;100.00
49102;BME280;34913;47.520;19.186;2022-10-14T00:15:07;100332.03;;;8.28;100.00
49102;BME280;34913;47.520;19.186;2022-10-14T00:17:33;100331.75;;;8.33;100.00
49102;BME280;34913;47.520;19.186;2022-10-14T00:19:59;100337.25;;;8.30;100.00
49102;BME280;34913;47.520;19.186;2022-10-14T00:22:25;100332.41;;;8.36;100.00
49102;BME280;34913;47.520;19.186;2022-10-14T00:24:50;100331.56;;;8.36;100.00
49102;BME280;34913;47.520;19.186;2022-10-14T00:27:16;100329.75;;;8.36;100.00
49102;BME280;34913;47.520;19.186;2022-10-14T00:29:41;100323.16;;;8.29;100.00
49102;BME280;34913;47.520;19.186;2022-10-14T00:32:06;100327.28;;;8.21;100.00
49102;BME280;34913;47.520;19.186;2022-10-14T00:34:32;100314.16;;;8.19;100.00
49102;BME280;34913;47.520;19.186;2022-10-14T00:36:58;100323.25;;;8.28;100.00
49102;BME280;34913;47.520;19.186;2022-10-14T00:39:23;100331.41;;;8.25;100.00
49102;BME280;34913;47.520;19.186;2022-10-14T00:41:48;100317.66;;;8.20;100.00
49102;BME280;34913;47.520;19.186;2022-10-14T00:46:44;100321.66;;;8.12;100.00
49102;BME280;34913;47.520;19.186;2022-10-14T00:49:19;100319.97;;;8.11;100.00
49102;BME280;34913;47.520;19.186;2022-10-14T00:51:53;100311.50;;;8.06;100.00
49102;BME280;34913;47.520;19.186;2022-10-14T00:54:22;100316.88;;;8.05;100.00
49102;BME280;34913;47.520;19.186;2022-10-14T00:56:49;100330.75;;;8.08;100.00
49102;BME280;34913;47.520;19.186;2022-10-14T00:59:15;100325.03;;;8.02;100.00
49102;BME280;34913;47.520;19.186;2022-10-14T01:01:40;100321.53;;;8.01;100.00
49102;BME280;34913;47.520;19.186;2022-10-14T01:04:06;100315.69;;;7.96;100.00
49102;BME280;34913;47.520;19.186;2022-10-14T01:06:39;100313.81;;;7.98;100.00
49102;BME280;34913;47.520;19.186;2022-10-14T01:17:53;100303.09;;;7.87;100.00
49102;BME280;34913;47.520;19.186;2022-10-14T01:20:29;100311.78;;;7.89;100.00
49102;BME280;34913;47.520;19.186;2022-10-14T01:29:04;100315.41;;;8.13;100.00
49102;BME280;34913;47.520;19.186;2022-10-14T01:31:37;100301.69;;;8.08;100.00
49102;BME280;34913;47.520;19.186;2022-10-14T01:34:09;100302.50;;;7.96;100.00
49102;BME280;34913;47.520;19.186;2022-10-14T01:36:44;100304.28;;;7.83;100.00
49102;BME280;34913;47.520;19.186;2022-10-14T01:39:15;100294.94;;;7.77;100.00
49102;BME280;34913;47.520;19.186;2022-10-14T01:41:46;100303.16;;;7.73;100.00
49102;BME280;34913;47.520;19.186;2022-10-14T01:44:15;100299.03;;;7.69;100.00
49102;BME280;34913;47.520;19.186;2022-10-14T01:46:44;100297.47;;;7.66;100.00
49102;BME280;34913;47.520;19.186;2022-10-14T01:49:24;100301.88;;;7.66;100.00
49102;BME280;34913;47.520;19.186;2022-10-14T01:51:55;100293.22;;;7.64;100.00
49102;BME280;34913;47.520;19.186;2022-10-14T01:54:27;100294.38;;;7.60;100.00
49102;BME280;34913;47.520;19.186;2022-10-14T01:56:57;100285.78;;;7.56;100.00
49102;BME280;34913;47.520;19.186;2022-10-14T01:59:25;100286.13;;;7.64;100.00
49102;BME280;34913;47.520;19.186;2022-10-14T02:01:50;100283.59;;;7.63;100.00
49102;BME280;34913;47.520;19.186;2022-10-14T02:04:18;100282.97;;;7.72;100.00
49102;BME280;34913;47.520;19.186;2022-10-14T02:07:37;100282.69;;;7.76;100.00
49102;BME280;34913;47.520;19.186;2022-10-14T02:12:47;100285.00;;;7.81;100.00
49102;BME280;34913;47.520;19.186;2022-10-14T02:20:35;100286.00;;;7.53;100.00
49102;BME280;34913;47.520;19.186;2022-10-14T02:23:10;100281.94;;;7.47;100.00
49102;BME280;34913;47.520;19.186;2022-10-14T02:25:38;100278.69;;;7.44;100.00
49102;BME280;34913;47.520;19.186;2022-10-14T02:28:06;100285.53;;;7.46;100.00
49102;BME280;34913;47.520;19.186;2022-10-14T02:30:37;100286.59;;;7.44;100.00
49102;BME280;34913;47.520;19.186;2022-10-14T02:33:05;100285.94;;;7.40;100.00
49102;BME280;34913;47.520;19.186;2022-10-14T02:35:32;100283.41;;;7.39;100.00
49102;BME280;34913;47.520;19.186;2022-10-14T02:37:59;100286.28;;;7.48;100.00
49102;BME280;34913;47.520;19.186;2022-10-14T02:40:32;100286.00;;;7.53;100.00
49102;BME280;34913;47.520;19.186;2022-10-14T02:43:00;100284.75;;;7.59;100.00
49102;BME280;34913;47.520;19.186;2022-10-14T02:45:26;100279.66;;;7.55;100.00
49102;BME280;34913;47.520;19.186;2022-10-14T02:47:52;100282.53;;;7.65;100.00
49102;BME280;34913;47.520;19.186;2022-10-14T02:50:18;100291.34;;;7.78;100.00
49102;BME280;34913;47.520;19.186;2022-10-14T02:52:44;100289.56;;;7.79;100.00
49102;BME280;34913;47.520;19.186;2022-10-14T02:55:10;100293.03;;;7.79;100.00
49102;BME280;34913;47.520;19.186;2022-10-14T02:57:36;100289.78;;;7.76;100.00
49102;BME280;34913;47.520;19.186;2022-10-14T03:00:04;100281.84;;;7.76;100.00
49102;BME280;34913;47.520;19.186;2022-10-14T03:02:30;100293.03;;;7.79;100.00
49102;BME280;34913;47.520;19.186;2022-10-14T03:04:55;100286.91;;;7.79;100.00
49102;BME280;34913;47.520;19.186;2022-10-14T03:07:22;100290.00;;;7.86;100.00
49102;BME280;34913;47.520;19.186;2022-10-14T03:09:47;100294.03;;;7.91;100.00
49102;BME280;34913;47.520;19.186;2022-10-14T03:12:12;100282.69;;;7.89;100.00
49102;BME280;34913;47.520;19.186;2022-10-14T03:14:38;100287.47;;;7.97;100.00
49102;BME280;34913;47.520;19.186;2022-10-14T03:17:03;100282.63;;;7.91;100.00
49102;BME280;34913;47.520;19.186;2022-10-14T03:19:29;100283.88;;;7.98;100.00
49102;BME280;34913;47.520;19.186;2022-10-14T03:21:54;100283.88;;;7.98;100.00
49102;BME280;34913;47.520;19.186;2022-10-14T03:24:19;100282.19;;;7.97;100.00
49102;BME280;34913;47.520;19.186;2022-10-14T03:26:45;100280.81;;;7.91;100.00
49102;BME280;34913;47.520;19.186;2022-10-14T03:29:10;100287.81;;;7.92;100.00
49102;BME280;34913;47.520;19.186;2022-10-14T03:31:36;100278.91;;;7.93;100.00
49102;BME280;34913;47.520;19.186;2022-10-14T03:34:01;100278.81;;;7.95;100.00
49102;BME280;34913;47.520;19.186;2022-10-14T03:36:27;100274.16;;;7.86;100.00
49102;BME280;34913;47.520;19.186;2022-10-14T03:38:53;100276.56;;;7.76;100.00
49102;BME280;34913;47.520;19.186;2022-10-14T03:41:18;100276.31;;;7.66;100.00
49102;BME280;34913;47.520;19.186;2022-10-14T03:43:44;100275.78;;;7.61;100.00
49102;BME280;34913;47.520;19.186;2022-10-14T03:46:09;100276.16;;;7.55;100.00
49102;BME280;34913;47.520;19.186;2022-10-14T03:48:35;100272.34;;;7.46;100.00
49102;BME280;34913;47.520;19.186;2022-10-14T03:51:00;100282.06;;;7.46;100.00
49102;BME280;34913;47.520;19.186;2022-10-14T03:53:25;100281.09;;;7.47;100.00
49102;BME280;34913;47.520;19.186;2022-10-14T03:55:51;100280.38;;;7.45;100.00
49102;BME280;34913;47.520;19.186;2022-10-14T03:58:16;100267.66;;;7.37;100.00
49102;BME280;34913;47.520;19.186;2022-10-14T04:00:42;100265.88;;;7.38;100.00
49102;BME280;34913;47.520;19.186;2022-10-14T04:03:07;100263.97;;;7.40;100.00
49102;BME280;34913;47.520;19.186;2022-10-14T04:05:32;100265.75;;;7.39;100.00
49102;BME280;34913;47.520;19.186;2022-10-14T04:07:59;100273.56;;;7.41;100.00
49102;BME280;34913;47.520;19.186;2022-10-14T04:10:25;100273.06;;;7.48;100.00
49102;BME280;34913;47.520;19.186;2022-10-14T04:12:52;100259.47;;;7.54;100.00
49102;BME280;34913;47.520;19.186;2022-10-14T04:15:18;100262.56;;;7.74;100.00
49102;BME280;34913;47.520;19.186;2022-10-14T04:17:43;100253.50;;;7.78;100.00
49102;BME280;34913;47.520;19.186;2022-10-14T04:20:09;100256.16;;;7.78;100.00
49102;BME280;34913;47.520;19.186;2022-10-14T04:22:34;100248.84;;;7.81;100.00
49102;BME280;34913;47.520;19.186;2022-10-14T04:25:00;100256.78;;;7.81;100.00
49102;BME280;34913;47.520;19.186;2022-10-14T04:27:25;100249.41;;;7.87;100.00
49102;BME280;34913;47.520;19.186;2022-10-14T04:29:51;100244.34;;;7.83;100.00
49102;BME280;34913;47.520;19.186;2022-10-14T04:32:17;100235.97;;;7.90;100.00
49102;BME280;34913;47.520;19.186;2022-10-14T04:34:43;100253.03;;;7.98;100.00
49102;BME280;34913;47.520;19.186;2022-10-14T04:37:08;100245.19;;;7.97;100.00
49102;BME280;34913;47.520;19.186;2022-10-14T04:39:34;100242.88;;;7.92;100.00
49102;BME280;34913;47.520;19.186;2022-10-14T04:41:59;100247.94;;;7.82;100.00
49102;BME280;34913;47.520;19.186;2022-10-14T04:44:25;100249.28;;;7.75;100.00
49102;BME280;34913;47.520;19.186;2022-10-14T04:46:50;100250.66;;;7.68;100.00
49102;BME280;34913;47.520;19.186;2022-10-14T04:49:15;100241.53;;;7.60;100.00
49102;BME280;34913;47.520;19.186;2022-10-14T04:51:42;100245.31;;;7.55;100.00
49102;BME280;34913;47.520;19.186;2022-10-14T04:54:07;100253.25;;;7.55;100.00
49102;BME280;34913;47.520;19.186;2022-10-14T04:56:33;100251.34;;;7.57;100.00
49102;BME280;34913;47.520;19.186;2022-10-14T04:58:58;100259.53;;;7.67;100.00
49102;BME280;34913;47.520;19.186;2022-10-14T05:01:24;100256.13;;;7.65;100.00
49102;BME280;34913;47.520;19.186;2022-10-14T05:03:49;100251.59;;;7.67;100.00
49102;BME280;34913;47.520;19.186;2022-10-14T05:06:16;100256.66;;;7.70;100.00
49102;BME280;34913;47.520;19.186;2022-10-14T05:08:41;100251.94;;;7.75;100.00
49102;BME280;34913;47.520;19.186;2022-10-14T05:11:07;100257.75;;;7.80;100.00
49102;BME280;34913;47.520;19.186;2022-10-14T05:13:32;100257.44;;;7.85;100.00
49102;BME280;34913;47.520;19.186;2022-10-14T05:15:58;100259.13;;;7.86;100.00
49102;BME280;34913;47.520;19.186;2022-10-14T05:18:23;100260.81;;;7.87;100.00
49102;BME280;34913;47.520;19.186;2022-10-14T05:20:48;100256.03;;;7.79;100.00
49102;BME280;34913;47.520;19.186;2022-10-14T05:23:14;100259.75;;;7.77;100.00
49102;BME280;34913;47.520;19.186;2022-10-14T05:25:40;100264.63;;;7.83;100.00
49102;BME280;34913;47.520;19.186;2022-10-14T05:28:06;100270.88;;;7.95;100.00
49102;BME280;34913;47.520;19.186;2022-10-14T05:30:31;100273.22;;;7.99;100.00
49102;BME280;34913;47.520;19.186;2022-10-14T05:32:57;100269.97;;;8.08;100.00
49102;BME280;34913;47.520;19.186;2022-10-14T05:35:22;100260.22;;;8.09;100.00
49102;BME280;34913;47.520;19.186;2022-10-14T05:37:53;100264.78;;;8.07;100.00
49102;BME280;34913;47.520;19.186;2022-10-14T05:40:19;100256.41;;;8.13;100.00
49102;BME280;34913;47.520;19.186;2022-10-14T05:42:44;100257.91;;;8.17;100.00
49102;BME280;34913;47.520;19.186;2022-10-14T05:45:10;100263.81;;;8.21;100.00
49102;BME280;34913;47.520;19.186;2022-10-14T05:47:35;100264.66;;;8.21;100.00
49102;BME280;34913;47.520;19.186;2022-10-14T05:50:00;100267.44;;;8.32;100.00
49102;BME280;34913;47.520;19.186;2022-10-14T05:52:27;100272.34;;;8.38;100.00
49102;BME280;34913;47.520;19.186;2022-10-14T05:54:54;100259.38;;;8.34;100.00
49102;BME280;34913;47.520;19.186;2022-10-14T05:57:19;100280.13;;;8.53;100.00
49102;BME280;34913;47.520;19.186;2022-10-14T05:59:44;100285.34;;;8.54;100.00
49102;BME280;34913;47.520;19.186;2022-10-14T06:02:10;100278.38;;;8.53;100.00
49102;BME280;34913;47.520;19.186;2022-10-14T06:04:36;100277.41;;;8.54;100.00
49102;BME280;34913;47.520;19.186;2022-10-14T06:07:05;100287.75;;;8.57;100.00
49102;BME280;34913;47.520;19.186;2022-10-14T06:09:31;100291.97;;;8.60;100.00
49102;BME280;34913;47.520;19.186;2022-10-14T06:11:56;100287.34;;;8.63;100.00
49102;BME280;34913;47.520;19.186;2022-10-14T06:14:22;100299.09;;;8.72;100.00
49102;BME280;34913;47.520;19.186;2022-10-14T06:16:50;100295.91;;;8.80;100.00
49102;BME280;34913;47.520;19.186;2022-10-14T06:19:16;100297.88;;;8.89;100.00
49102;BME280;34913;47.520;19.186;2022-10-14T06:21:41;100297.34;;;8.97;100.00
49102;BME280;34913;47.520;19.186;2022-10-14T06:24:09;100298.06;;;9.11;100.00
49102;BME280;34913;47.520;19.186;2022-10-14T06:26:34;100296.03;;;9.15;100.00
49102;BME280;34913;47.520;19.186;2022-10-14T06:29:00;100300.03;;;9.20;100.00
49102;BME280;34913;47.520;19.186;2022-10-14T06:31:25;100296.00;;;9.28;100.00
49102;BME280;34913;47.520;19.186;2022-10-14T06:33:50;100300.75;;;9.35;100.00
49102;BME280;34913;47.520;19.186;2022-10-14T06:36:16;100298.94;;;9.36;100.00
49102;BME280;34913;47.520;19.186;2022-10-14T06:38:41;100303.56;;;9.45;100.00
49102;BME280;34913;47.520;19.186;2022-10-14T06:41:07;100300.22;;;9.54;100.00
49102;BME280;34913;47.520;19.186;2022-10-14T06:43:32;100301.34;;;9.63;100.00
49102;BME280;34913;47.520;19.186;2022-10-14T06:45:59;100303.63;;;9.80;99.84
49102;BME280;34913;47.520;19.186;2022-10-14T06:48:25;100312.84;;;9.98;99.42
49102;BME280;34913;47.520;19.186;2022-10-14T06:50:51;100306.97;;;10.17;97.71
49102;BME280;34913;47.520;19.186;2022-10-14T06:53:16;100318.06;;;10.35;96.11
49102;BME280;34913;47.520;19.186;2022-10-14T06:55:42;100311.19;;;10.55;94.76
49102;BME280;34913;47.520;19.186;2022-10-14T06:58:07;100312.75;;;10.57;94.39
49102;BME280;34913;47.520;19.186;2022-10-14T07:00:33;100306.13;;;10.52;93.98
49102;BME280;34913;47.520;19.186;2022-10-14T07:02:58;100304.66;;;10.48;94.83
49102;BME280;34913;47.520;19.186;2022-10-14T07:05:24;100293.84;;;10.51;95.73
49102;BME280;34913;47.520;19.186;2022-10-14T07:07:50;100309.88;;;10.72;96.02
49102;BME280;34913;47.520;19.186;2022-10-14T07:10:16;100312.06;;;10.89;96.11
49102;BME280;34913;47.520;19.186;2022-10-14T07:12:41;100314.25;;;11.06;95.32
49102;BME280;34913;47.520;19.186;2022-10-14T07:15:07;100314.69;;;11.23;93.87
49102;BME280;34913;47.520;19.186;2022-10-14T07:17:33;100311.66;;;11.38;92.86
49102;BME280;34913;47.520;19.186;2022-10-14T07:19:58;100314.06;;;11.41;92.04
49102;BME280;34913;47.520;19.186;2022-10-14T07:22:23;100315.97;;;11.51;91.60
49102;BME280;34913;47.520;19.186;2022-10-14T07:24:49;100317.28;;;11.56;90.79
49102;BME280;34913;47.520;19.186;2022-10-14T07:27:14;100278.88;;;11.49;90.41
49102;BME280;34913;47.520;19.186;2022-10-14T07:29:44;100304.66;;;11.81;90.49
49102;BME280;34913;47.520;19.186;2022-10-14T07:32:10;100305.84;;;11.88;90.18
49102;BME280;34913;47.520;19.186;2022-10-14T07:34:35;100309.91;;;11.92;90.48
49102;BME280;34913;47.520;19.186;2022-10-14T07:37:01;100307.94;;;12.05;90.55
49102;BME280;34913;47.520;19.186;2022-10-14T07:39:26;100304.75;;;12.11;89.86
49102;BME280;34913;47.520;19.186;2022-10-14T07:41:53;100305.22;;;12.37;89.24
49102;BME280;34913;47.520;19.186;2022-10-14T07:44:19;100303.81;;;12.64;87.81
49102;BME280;34913;47.520;19.186;2022-10-14T07:46:45;100303.94;;;12.93;86.43
49102;BME280;34913;47.520;19.186;2022-10-14T07:49:19;100299.66;;;13.11;84.39
49102;BME280;34913;47.520;19.186;2022-10-14T07:51:46;100297.94;;;13.31;83.17
49102;BME280;34913;47.520;19.186;2022-10-14T07:54:19;100297.28;;;13.58;82.47
49102;BME280;34913;47.520;19.186;2022-10-14T07:56:45;100304.03;;;13.81;81.58
49102;BME280;34913;47.520;19.186;2022-10-14T07:59:13;100302.06;;;14.03;80.32
49102;BME280;34913;47.520;19.186;2022-10-14T08:01:39;100294.59;;;14.25;79.25
49102;BME280;34913;47.520;19.186;2022-10-14T08:04:04;100296.13;;;14.28;76.40
49102;BME280;34913;47.520;19.186;2022-10-14T08:06:30;100292.78;;;14.16;77.15
49102;BME280;34913;47.520;19.186;2022-10-14T08:08:55;100284.59;;;14.28;77.70
49102;BME280;34913;47.520;19.186;2022-10-14T08:11:23;100283.47;;;14.40;76.47
49102;BME280;34913;47.520;19.186;2022-10-14T08:13:49;100280.22;;;14.56;76.72
49102;BME280;34913;47.520;19.186;2022-10-14T08:16:21;100284.41;;;14.68;75.30
49102;BME280;34913;47.520;19.186;2022-10-14T08:18:48;100292.88;;;14.91;75.76
49102;BME280;34913;47.520;19.186;2022-10-14T08:21:14;100285.56;;;15.20;73.48
49102;BME280;34913;47.520;19.186;2022-10-14T08:23:41;100275.22;;;15.35;72.59
49102;BME280;34913;47.520;19.186;2022-10-14T08:26:28;100280.56;;;15.53;73.97
49102;BME280;34913;47.520;19.186;2022-10-14T08:28:55;100278.78;;;15.71;70.74
49102;BME280;34913;47.520;19.186;2022-10-14T08:31:21;100270.69;;;15.81;69.98
49102;BME280;34913;47.520;19.186;2022-10-14T08:33:47;100276.59;;;16.10;69.15
49102;BME280;34913;47.520;19.186;2022-10-14T08:36:14;100273.59;;;16.31;67.97
49102;BME280;34913;47.520;19.186;2022-10-14T08:38:40;100267.03;;;16.52;66.28
49102;BME280;34913;47.520;19.186;2022-10-14T08:51:43;100255.13;;;17.14;65.67
49102;BME280;34913;47.520;19.186;2022-10-14T08:54:13;100261.34;;;17.23;66.52
49102;BME280;34913;47.520;19.186;2022-10-14T08:56:40;100253.47;;;17.38;63.08
49102;BME280;34913;47.520;19.186;2022-10-14T08:59:13;100255.22;;;17.47;63.15
49102;BME280;34913;47.520;19.186;2022-10-14T09:02:01;100249.16;;;17.61;62.76
49102;BME280;34913;47.520;19.186;2022-10-14T09:04:29;100253.84;;;17.51;62.75
49102;BME280;34913;47.520;19.186;2022-10-14T09:06:58;100254.34;;;17.38;63.17
49102;BME280;34913;47.520;19.186;2022-10-14T09:09:39;100258.19;;;17.36;64.39
49102;BME280;34913;47.520;19.186;2022-10-14T09:12:11;100258.56;;;17.57;63.92
49102;BME280;34913;47.520;19.186;2022-10-14T09:14:44;100260.63;;;17.71;64.79
49102;BME280;34913;47.520;19.186;2022-10-14T09:17:24;100254.25;;;17.97;62.60
49102;BME280;34913;47.520;19.186;2022-10-14T09:20:05;100247.03;;;18.22;58.35
49102;BME280;34913;47.520;19.186;2022-10-14T09:22:37;100256.56;;;18.49;57.37
49102;BME280;34913;47.520;19.186;2022-10-14T09:25:11;100260.22;;;18.56;56.25
49102;BME280;34913;47.520;19.186;2022-10-14T09:27:36;100254.84;;;18.56;56.84
49102;BME280;34913;47.520;19.186;2022-10-14T09:30:04;100256.22;;;18.52;57.81
49102;BME280;34913;47.520;19.186;2022-10-14T09:32:45;100258.56;;;18.47;58.94
49102;BME280;34913;47.520;19.186;2022-10-14T09:35:19;100258.03;;;18.59;59.39
49102;BME280;34913;47.520;19.186;2022-10-14T09:37:46;100252.25;;;18.87;57.06
49102;BME280;34913;47.520;19.186;2022-10-14T09:43:01;100270.44;;;18.85;57.76
49102;BME280;34913;47.520;19.186;2022-10-14T09:45:46;100261.78;;;19.06;56.44
49102;BME280;34913;47.520;19.186;2022-10-14T09:48:41;100251.25;;;18.88;56.44
49102;BME280;34913;47.520;19.186;2022-10-14T09:51:08;100256.94;;;18.93;57.08
49102;BME280;34913;47.520;19.186;2022-10-14T09:53:38;100263.69;;;18.89;57.05
49102;BME280;34913;47.520;19.186;2022-10-14T09:56:07;100270.94;;;18.88;57.44
49102;BME280;34913;47.520;19.186;2022-10-14T09:58:50;100253.84;;;19.12;56.85
49102;BME280;34913;47.520;19.186;2022-10-14T10:01:24;100253.63;;;19.22;56.71
49102;BME280;34913;47.520;19.186;2022-10-14T10:03:52;100260.53;;;19.16;58.68
49102;BME280;34913;47.520;19.186;2022-10-14T10:06:20;100253.53;;;19.38;57.05
49102;BME280;34913;47.520;19.186;2022-10-14T10:08:56;100251.53;;;19.32;58.07
49102;BME280;34913;47.520;19.186;2022-10-14T10:11:34;100256.00;;;19.48;57.48
49102;BME280;34913;47.520;19.186;2022-10-14T10:14:25;100251.09;;;19.60;56.63
49102;BME280;34913;47.520;19.186;2022-10-14T10:22:33;100251.63;;;19.78;56.26
49102;BME280;34913;47.520;19.186;2022-10-14T10:27:30;100244.03;;;19.96;54.84
49102;BME280;34913;47.520;19.186;2022-10-14T10:35:32;100228.84;;;19.80;54.61
49102;BME280;34913;47.520;19.186;2022-10-14T10:50:55;100215.84;;;20.22;53.15
49102;BME280;34913;47.520;19.186;2022-10-14T11:01:47;100200.81;;;20.27;53.06
49102;BME280;34913;47.520;19.186;2022-10-14T11:04:16;100207.63;;;20.38;52.17
49102;BME280;34913;47.520;19.186;2022-10-14T11:13:00;100203.16;;;19.93;54.38
49102;BME280;34913;47.520;19.186;2022-10-14T11:15:45;100193.38;;;20.15;53.66
49102;BME280;34913;47.520;19.186;2022-10-14T11:18:31;100198.66;;;20.38;52.11
49102;BME280;34913;47.520;19.186;2022-10-14T11:23:58;100189.00;;;20.28;50.82
49102;BME280;34913;47.520;19.186;2022-10-14T11:29:28;100178.44;;;20.56;50.56
49102;BME280;34913;47.520;19.186;2022-10-14T11:32:26;100176.19;;;20.30;48.94
49102;BME280;34913;47.520;19.186;2022-10-14T11:37:42;100176.38;;;20.44;49.98
49102;BME280;34913;47.520;19.186;2022-10-14T11:42:56;100167.25;;;20.74;51.03
49102;BME280;34913;47.520;19.186;2022-10-14T11:48:07;100159.13;;;20.89;50.55
49102;BME280;34913;47.520;19.186;2022-10-14T11:50:39;100158.94;;;20.90;51.19
49102;BME280;34913;47.520;19.186;2022-10-14T11:53:24;100157.09;;;20.91;49.43
49102;BME280;34913;47.520;19.186;2022-10-14T12:02:19;100162.13;;;20.20;51.47
49102;BME280;34913;47.520;19.186;2022-10-14T12:05:01;100160.63;;;20.03;54.24
49102;BME280;34913;47.520;19.186;2022-10-14T12:08:01;100157.84;;;20.11;52.89
49102;BME280;34913;47.520;19.186;2022-10-14T12:10:36;100155.81;;;20.28;52.52
49102;BME280;34913;47.520;19.186;2022-10-14T12:13:09;100157.16;;;20.47;53.30
49102;BME280;34913;47.520;19.186;2022-10-14T12:15:39;100160.03;;;20.30;52.91
49102;BME280;34913;47.520;19.186;2022-10-14T12:18:07;100157.03;;;20.11;53.29
49102;BME280;34913;47.520;19.186;2022-10-14T12:20:50;100147.25;;;19.95;53.66
49102;BME280;34913;47.520;19.186;2022-10-14T12:23:30;100159.38;;;19.76;54.52
49102;BME280;34913;47.520;19.186;2022-10-14T12:28:45;100149.56;;;19.37;55.67
49102;BME280;34913;47.520;19.186;2022-10-14T12:31:33;100149.75;;;19.13;56.49
49102;BME280;34913;47.520;19.186;2022-10-14T12:36:41;100135.81;;;18.78;57.74
49102;BME280;34913;47.520;19.186;2022-10-14T12:39:31;100132.88;;;18.57;57.67
49102;BME280;34913;47.520;19.186;2022-10-14T12:42:09;100124.75;;;18.34;58.38
49102;BME280;34913;47.520;19.186;2022-10-14T12:44:48;100133.31;;;18.29;60.36
49102;BME280;34913;47.520;19.186;2022-10-14T12:47:22;100136.88;;;18.22;59.63
49102;BME280;34913;47.520;19.186;2022-10-14T12:49:54;100126.97;;;18.14;61.18
49102;BME280;34913;47.520;19.186;2022-10-14T12:52:34;100130.84;;;18.20;60.20
49102;BME280;34913;47.520;19.186;2022-10-14T12:55:08;100122.94;;;18.26;59.98
49102;BME280;34913;47.520;19.186;2022-10-14T12:57:37;100123.75;;;18.35;60.01
49102;BME280;34913;47.520;19.186;2022-10-14T13:02:54;100119.28;;;18.58;60.54
49102;BME280;34913;47.520;19.186;2022-10-14T13:05:28;100115.38;;;18.69;58.59
49102;BME280;34913;47.520;19.186;2022-10-14T13:16:03;100110.84;;;18.61;59.64
49102;BME280;34913;47.520;19.186;2022-10-14T13:20:59;100115.75;;;18.58;59.97
49102;BME280;34913;47.520;19.186;2022-10-14T13:25:51;100108.00;;;18.55;61.35
49102;BME280;34913;47.520;19.186;2022-10-14T13:28:26;100097.81;;;18.50;62.00
49102;BME280;34913;47.520;19.186;2022-10-14T13:31:11;100099.78;;;18.56;60.01
49102;BME280;34913;47.520;19.186;2022-10-14T13:33:49;100105.84;;;18.58;60.78
49102;BME280;34913;47.520;19.186;2022-10-14T13:36:22;100107.34;;;18.53;60.11
49102;BME280;34913;47.520;19.186;2022-10-14T13:38:53;100101.63;;;18.56;61.39
49102;BME280;34913;47.520;19.186;2022-10-14T13:41:20;100105.97;;;18.65;61.96
49102;BME280;34913;47.520;19.186;2022-10-14T13:43:52;100108.31;;;18.68;61.53
49102;BME280;34913;47.520;19.186;2022-10-14T13:46:32;100108.13;;;18.69;61.53
49102;BME280;34913;47.520;19.186;2022-10-14T13:49:02;100101.47;;;18.65;60.79
49102;BME280;34913;47.520;19.186;2022-10-14T13:51:55;100100.25;;;18.68;61.40
49102;BME280;34913;47.520;19.186;2022-10-14T13:54:25;100101.28;;;18.67;60.76
49102;BME280;34913;47.520;19.186;2022-10-14T13:59:22;100093.22;;;18.59;60.43
49102;BME280;34913;47.520;19.186;2022-10-14T14:01:54;100102.31;;;18.58;63.57
49102;BME280;34913;47.520;19.186;2022-10-14T14:04:25;100099.47;;;18.51;60.66
49102;BME280;34913;47.520;19.186;2022-10-14T14:06:53;100092.09;;;18.45;62.63
49102;BME280;34913;47.520;19.186;2022-10-14T14:09:22;100084.22;;;18.44;62.83
49102;BME280;34913;47.520;19.186;2022-10-14T14:11:50;100090.13;;;18.39;62.91
49102;BME280;34913;47.520;19.186;2022-10-14T14:14:20;100085.09;;;18.36;64.24
49102;BME280;34913;47.520;19.186;2022-10-14T14:16:59;100075.41;;;18.27;65.34
49102;BME280;34913;47.520;19.186;2022-10-14T14:19:34;100074.06;;;18.23;66.26
49102;BME280;34913;47.520;19.186;2022-10-14T14:22:21;100078.97;;;18.19;64.95
49102;BME280;34913;47.520;19.186;2022-10-14T14:24:52;100073.81;;;18.09;62.06
49102;BME280;34913;47.520;19.186;2022-10-14T14:27:33;100082.84;;;18.08;66.36
49102;BME280;34913;47.520;19.186;2022-10-14T14:29:58;100075.78;;;18.07;67.93
49102;BME280;34913;47.520;19.186;2022-10-14T14:32:30;100074.78;;;18.08;66.42
49102;BME280;34913;47.520;19.186;2022-10-14T14:34:57;100075.78;;;18.16;66.95
49102;BME280;34913;47.520;19.186;2022-10-14T14:37:27;100080.63;;;18.20;64.81
49102;BME280;34913;47.520;19.186;2022-10-14T14:40:15;100080.81;;;18.19;64.90
49102;BME280;34913;47.520;19.186;2022-10-14T14:42:42;100079.44;;;18.23;64.60
49102;BME280;34913;47.520;19.186;2022-10-14T14:47:42;100085.66;;;18.23;62.77
49102;BME280;34913;47.520;19.186;2022-10-14T14:50:13;100080.31;;;18.15;62.21
49102;BME280;34913;47.520;19.186;2022-10-14T14:52:41;100078.63;;;18.14;61.69
49102;BME280;34913;47.520;19.186;2022-10-14T14:55:39;100078.84;;;18.04;64.19
49102;BME280;34913;47.520;19.186;2022-10-14T15:00:58;100072.66;;;17.96;63.56